sensor_id;sensor_type;location;lat;lon;timestamp;pressure;altitude;pressure_sealevel;temperature;humidity
61786;BME280;47692;53.714;11.372;2023-02-12T00:00:35;102846.19;;;4.94;100.00
61786;BME280;47692;53.714;11.372;2023-02-12T00:03:00;102837.50;;;4.92;100.00
61786;BME280;47692;53.714;11.372;2023-02-12T00:05:26;102841.91;;;4.95;100.00
61786;BME280;47692;53.714;11.372;2023-02-12T00:07:52;102835.06;;;4.97;100.00
61786;BME280;47692;53.714;11.372;2023-02-12T00:10:18;102845.53;;;5.00;100.00
61786;BME280;47692;53.714;11.372;2023-02-12T00:12:43;102845.75;;;5.06;100.00
61786;BME280;47692;53.714;11.372;2023-02-12T00:15:08;102850.94;;;5.06;100.00
61786;BME280;47692;53.714;11.372;2023-02-12T00:17:34;102844.97;;;5.09;100.00
61786;BME280;47692;53.714;11.372;2023-02-12T00:19:59;102847.50;;;5.07;100.00
61786;BME280;47692;53.714;11.372;2023-02-12T00:22:24;102862.97;;;5.06;100.00
61786;BME280;47692;53.714;11.372;2023-02-12T00:24:50;102860.44;;;5.07;100.00
61786;BME280;47692;53.714;11.372;2023-02-12T00:27:15;102861.59;;;5.15;100.00
61786;BME280;47692;53.714;11.372;2023-02-12T00:29:41;102863.25;;;5.13;100.00
61786;BME280;47692;53.714;11.372;2023-02-12T00:32:06;102857.09;;;5.10;100.00
61786;BME280;47692;53.714;11.372;2023-02-12T00:34:32;102863.16;;;5.10;100.00
61786;BME280;47692;53.714;11.372;2023-02-12T00:36:57;102864.91;;;5.11;100.00
61786;BME280;47692;53.714;11.372;2023-02-12T00:39:22;102870.25;;;5.16;100.00
61786;BME280;47692;53.714;11.372;2023-02-12T00:41:48;102873.72;;;5.16;100.00
61786;BME280;47692;53.714;11.372;2023-02-12T00:44:13;102880.66;;;5.17;100.00
61786;BME280;47692;53.714;11.372;2023-02-12T00:46:38;102875.56;;;5.21;100.00
61786;BME280;47692;53.714;11.372;2023-02-12T00:49:03;102880.66;;;5.17;100.00
61786;BME280;47692;53.714;11.372;2023-02-12T00:51:29;102878.06;;;5.17;100.00
61786;BME280;47692;53.714;11.372;2023-02-12T00:53:54;102886.06;;;5.24;100.00
61786;BME280;47692;53.714;11.372;2023-02-12T00:56:20;102885.03;;;5.18;100.00
61786;BME280;47692;53.714;11.372;2023-02-12T00:58:45;102892.88;;;5.22;100.00
61786;BME280;47692;53.714;11.372;2023-02-12T01:01:10;102890.34;;;5.23;100.00
61786;BME280;47692;53.714;11.372;2023-02-12T01:03:36;102905.88;;;5.23;100.00
61786;BME280;47692;53.714;11.372;2023-02-12T01:06:02;102905.00;;;5.23;100.00
61786;BME280;47692;53.714;11.372;2023-02-12T01:08:28;102905.09;;;5.26;100.00
61786;BME280;47692;53.714;11.372;2023-02-12T01:11:02;102909.44;;;5.27;100.00
61786;BME280;47692;53.714;11.372;2023-02-12T01:13:29;102911.34;;;5.31;100.00
61786;BME280;47692;53.714;11.372;2023-02-12T01:16:07;102922.53;;;5.30;100.00
61786;BME280;47692;53.714;11.372;2023-02-12T01:18:33;102917.38;;;5.31;100.00
61786;BME280;47692;53.714;11.372;2023-02-12T01:20:59;102919.13;;;5.31;100.00
61786;BME280;47692;53.714;11.372;2023-02-12T01:23:26;102928.63;;;5.32;100.00
61786;BME280;47692;53.714;11.372;2023-02-12T01:25:52;102923.59;;;5.37;100.00
61786;BME280;47692;53.714;11.372;2023-02-12T01:28:17;102914.03;;;5.34;100.00
61786;BME280;47692;53.714;11.372;2023-02-12T01:30:43;102914.13;;;5.37;100.00
61786;BME280;47692;53.714;11.372;2023-02-12T01:33:08;102914.88;;;5.34;100.00
61786;BME280;47692;53.714;11.372;2023-02-12T01:35:33;102912.25;;;5.33;100.00
61786;BME280;47692;53.714;11.372;2023-02-12T01:37:59;102901.13;;;5.36;100.00
61786;BME280;47692;53.714;11.372;2023-02-12T01:40:24;102910.69;;;5.38;100.00
61786;BME280;47692;53.714;11.372;2023-02-12T01:42:49;102913.19;;;5.35;100.00
61786;BME280;47692;53.714;11.372;2023-02-12T01:47:42;102896.84;;;5.36;100.00
61786;BME280;47692;53.714;11.372;2023-02-12T01:50:11;102899.47;;;5.38;100.00
61786;BME280;47692;53.714;11.372;2023-02-12T01:52:39;102900.34;;;5.38;100.00
61786;BME280;47692;53.714;11.372;2023-02-12T01:55:07;102908.97;;;5.37;100.00
61786;BME280;47692;53.714;11.372;2023-02-12T01:57:37;102919.31;;;5.37;100.00
61786;BME280;47692;53.714;11.372;2023-02-12T02:00:07;102915.78;;;5.35;100.00
61786;BME280;47692;53.714;11.372;2023-02-12T02:02:33;102918.41;;;5.37;100.00
61786;BME280;47692;53.714;11.372;2023-02-12T02:05:00;102910.69;;;5.38;100.00
61786;BME280;47692;53.714;11.372;2023-02-12T02:07:27;102916.78;;;5.39;100.00
61786;BME280;47692;53.714;11.372;2023-02-12T02:09:53;102918.41;;;5.37;100.00
61786;BME280;47692;53.714;11.372;2023-02-12T02:12:18;102914.13;;;5.37;100.00
61786;BME280;47692;53.714;11.372;2023-02-12T02:15:03;102923.72;;;5.40;100.00
61786;BME280;47692;53.714;11.372;2023-02-12T02:31:40;102916.44;;;5.29;100.00
61786;BME280;47692;53.714;11.372;2023-02-12T02:36:53;102918.16;;;5.29;100.00
61786;BME280;47692;53.714;11.372;2023-02-12T02:42:17;102918.22;;;5.30;100.00
61786;BME280;47692;53.714;11.372;2023-02-12T02:47:16;102925.06;;;5.28;100.00
61786;BME280;47692;53.714;11.372;2023-02-12T02:49:52;102926.03;;;5.32;100.00
61786;BME280;47692;53.714;11.372;2023-02-12T02:52:25;102931.94;;;5.28;100.00
61786;BME280;47692;53.714;11.372;2023-02-12T02:54:55;102924.28;;;5.31;100.00
61786;BME280;47692;53.714;11.372;2023-02-12T02:57:35;102931.22;;;5.32;100.00
61786;BME280;47692;53.714;11.372;2023-02-12T03:00:34;102932.75;;;5.27;100.00
61786;BME280;47692;53.714;11.372;2023-02-12T03:03:10;102930.19;;;5.27;100.00
61786;BME280;47692;53.714;11.372;2023-02-12T03:05:44;102936.94;;;5.23;100.00
61786;BME280;47692;53.714;11.372;2023-02-12T03:10:42;102927.38;;;5.21;100.00
61786;BME280;47692;53.714;11.372;2023-02-12T03:13:12;102932.69;;;5.24;100.00
61786;BME280;47692;53.714;11.372;2023-02-12T03:15:46;102930.03;;;5.22;100.00
61786;BME280;47692;53.714;11.372;2023-02-12T03:18:19;102928.31;;;5.23;100.00
61786;BME280;47692;53.714;11.372;2023-02-12T03:20:49;102941.25;;;5.23;100.00
61786;BME280;47692;53.714;11.372;2023-02-12T03:23:34;102944.81;;;5.25;100.00
61786;BME280;47692;53.714;11.372;2023-02-12T03:26:08;102946.66;;;5.29;100.00
61786;BME280;47692;53.714;11.372;2023-02-12T03:28:37;102956.06;;;5.27;100.00
61786;BME280;47692;53.714;11.372;2023-02-12T03:31:07;102950.06;;;5.28;100.00
61786;BME280;47692;53.714;11.372;2023-02-12T03:38:52;102949.97;;;5.25;100.00
61786;BME280;47692;53.714;11.372;2023-02-12T03:41:31;102960.34;;;5.25;100.00
61786;BME280;47692;53.714;11.372;2023-02-12T03:44:15;102952.56;;;5.25;100.00
61786;BME280;47692;53.714;11.372;2023-02-12T03:49:26;102963.59;;;5.19;100.00
61786;BME280;47692;53.714;11.372;2023-02-12T03:51:54;102973.06;;;5.18;100.00
61786;BME280;47692;53.714;11.372;2023-02-12T03:54:20;102968.81;;;5.21;100.00
61786;BME280;47692;53.714;11.372;2023-02-12T03:59:21;102967.91;;;5.18;100.00
61786;BME280;47692;53.714;11.372;2023-02-12T04:01:49;102964.31;;;5.15;100.00
61786;BME280;47692;53.714;11.372;2023-02-12T04:04:16;102979.75;;;5.13;100.00
61786;BME280;47692;53.714;11.372;2023-02-12T04:06:42;102984.03;;;5.11;100.00
61786;BME280;47692;53.714;11.372;2023-02-12T04:09:10;102983.09;;;5.09;100.00
61786;BME280;47692;53.714;11.372;2023-02-12T04:14:45;102982.03;;;5.04;100.00
61786;BME280;47692;53.714;11.372;2023-02-12T04:17:34;102985.44;;;5.03;100.00
61786;BME280;47692;53.714;11.372;2023-02-12T04:33:21;102997.47;;;5.01;100.00
61786;BME280;47692;53.714;11.372;2023-02-12T04:36:00;102993.94;;;4.99;100.00
61786;BME280;47692;53.714;11.372;2023-02-12T04:38:36;103001.66;;;4.97;100.00
61786;BME280;47692;53.714;11.372;2023-02-12T04:41:05;103002.47;;;4.96;100.00
61786;BME280;47692;53.714;11.372;2023-02-12T04:43:33;103004.28;;;4.99;100.00
61786;BME280;47692;53.714;11.372;2023-02-12T04:46:00;103005.06;;;4.96;100.00
61786;BME280;47692;53.714;11.372;2023-02-12T04:48:26;103005.84;;;4.94;100.00
61786;BME280;47692;53.714;11.372;2023-02-12T04:50:51;103005.84;;;4.94;100.00
61786;BME280;47692;53.714;11.372;2023-02-12T04:53:16;103005.06;;;4.96;100.00
61786;BME280;47692;53.714;11.372;2023-02-12T04:55:42;103002.44;;;4.95;100.00
61786;BME280;47692;53.714;11.372;2023-02-12T04:58:08;103002.53;;;4.98;100.00
61786;BME280;47692;53.714;11.372;2023-02-12T05:00:33;103008.56;;;4.98;100.00
61786;BME280;47692;53.714;11.372;2023-02-12T05:02:58;103008.56;;;4.98;100.00
61786;BME280;47692;53.714;11.372;2023-02-12T05:05:24;103013.84;;;5.00;100.00
61786;BME280;47692;53.714;11.372;2023-02-12T05:07:49;103005.84;;;4.94;100.00
61786;BME280;47692;53.714;11.372;2023-02-12T05:10:15;103015.25;;;4.92;100.00
61786;BME280;47692;53.714;11.372;2023-02-12T05:12:40;103022.19;;;4.93;100.00
61786;BME280;47692;53.714;11.372;2023-02-12T05:15:06;103021.25;;;4.91;100.00
61786;BME280;47692;53.714;11.372;2023-02-12T05:17:31;103020.41;;;4.92;100.00
61786;BME280;47692;53.714;11.372;2023-02-12T05:19:56;103021.38;;;4.94;100.00
61786;BME280;47692;53.714;11.372;2023-02-12T05:22:22;103027.19;;;4.88;100.00
61786;BME280;47692;53.714;11.372;2023-02-12T05:24:47;103025.41;;;4.87;100.00
61786;BME280;47692;53.714;11.372;2023-02-12T05:27:12;103026.31;;;4.88;100.00
61786;BME280;47692;53.714;11.372;2023-02-12T05:29:38;103019.59;;;4.93;100.00
61786;BME280;47692;53.714;11.372;2023-02-12T05:32:04;103016.06;;;4.91;100.00
61786;BME280;47692;53.714;11.372;2023-02-12T05:34:30;103020.56;;;4.95;100.00
61786;BME280;47692;53.714;11.372;2023-02-12T05:36:56;103014.53;;;4.96;100.00
61786;BME280;47692;53.714;11.372;2023-02-12T05:39:21;103020.47;;;4.93;100.00
61786;BME280;47692;53.714;11.372;2023-02-12T05:41:46;103021.38;;;4.94;100.00
61786;BME280;47692;53.714;11.372;2023-02-12T05:44:12;103020.38;;;4.90;100.00
61786;BME280;47692;53.714;11.372;2023-02-12T05:46:39;103031.06;;;4.99;100.00
61786;BME280;47692;53.714;11.372;2023-02-12T05:49:05;103026.66;;;4.97;100.00
61786;BME280;47692;53.714;11.372;2023-02-12T05:51:30;103039.59;;;4.97;100.00
61786;BME280;47692;53.714;11.372;2023-02-12T05:53:58;103043.94;;;4.98;100.00
61786;BME280;47692;53.714;11.372;2023-02-12T05:56:36;103036.78;;;4.91;100.00
61786;BME280;47692;53.714;11.372;2023-02-12T05:59:04;103037.72;;;4.93;100.00
61786;BME280;47692;53.714;11.372;2023-02-12T06:01:33;103037.78;;;4.94;100.00
61786;BME280;47692;53.714;11.372;2023-02-12T06:03:59;103037.72;;;4.93;100.00
61786;BME280;47692;53.714;11.372;2023-02-12T06:06:26;103039.50;;;4.94;100.00
61786;BME280;47692;53.714;11.372;2023-02-12T06:08:52;103041.06;;;4.90;100.00
61786;BME280;47692;53.714;11.372;2023-02-12T06:11:18;103044.53;;;4.91;100.00
61786;BME280;47692;53.714;11.372;2023-02-12T06:13:45;103044.66;;;4.94;100.00
61786;BME280;47692;53.714;11.372;2023-02-12T06:18:41;103055.03;;;4.94;100.00
61786;BME280;47692;53.714;11.372;2023-02-12T06:21:06;103054.06;;;4.92;100.00
61786;BME280;47692;53.714;11.372;2023-02-12T06:23:31;103047.25;;;4.94;100.00
61786;BME280;47692;53.714;11.372;2023-02-12T06:25:57;103049.03;;;4.95;100.00
61786;BME280;47692;53.714;11.372;2023-02-12T06:28:22;103043.75;;;4.93;100.00
61786;BME280;47692;53.714;11.372;2023-02-12T06:30:48;103044.50;;;4.89;100.00
61786;BME280;47692;53.714;11.372;2023-02-12T06:33:13;103057.47;;;4.91;100.00
61786;BME280;47692;53.714;11.372;2023-02-12T06:35:38;103055.72;;;4.90;100.00
61786;BME280;47692;53.714;11.372;2023-02-12T06:38:04;103058.38;;;4.91;100.00
61786;BME280;47692;53.714;11.372;2023-02-12T06:40:29;103055.84;;;4.93;100.00
61786;BME280;47692;53.714;11.372;2023-02-12T06:42:55;103059.16;;;4.89;100.00
61786;BME280;47692;53.714;11.372;2023-02-12T06:45:20;103055.59;;;4.87;100.00
61786;BME280;47692;53.714;11.372;2023-02-12T06:47:46;103057.28;;;4.86;100.00
61786;BME280;47692;53.714;11.372;2023-02-12T06:50:11;103067.72;;;4.88;100.00
61786;BME280;47692;53.714;11.372;2023-02-12T06:52:37;103062.56;;;4.88;100.00
61786;BME280;47692;53.714;11.372;2023-02-12T06:55:02;103062.56;;;4.88;100.00
61786;BME280;47692;53.714;11.372;2023-02-12T06:57:28;103072.00;;;4.87;100.00
61786;BME280;47692;53.714;11.372;2023-02-12T06:59:54;103072.09;;;4.89;100.00
61786;BME280;47692;53.714;11.372;2023-02-12T07:02:19;103082.38;;;4.87;100.00
61786;BME280;47692;53.714;11.372;2023-02-12T07:04:45;103080.69;;;4.88;100.00
61786;BME280;47692;53.714;11.372;2023-02-12T07:07:10;103087.50;;;4.85;100.00
61786;BME280;47692;53.714;11.372;2023-02-12T07:09:35;103089.31;;;4.88;100.00
61786;BME280;47692;53.714;11.372;2023-02-12T07:12:01;103090.22;;;4.89;100.00
61786;BME280;47692;53.714;11.372;2023-02-12T07:14:26;103096.13;;;4.86;100.00
61786;BME280;47692;53.714;11.372;2023-02-12T07:16:53;103098.66;;;4.84;100.00
61786;BME280;47692;53.714;11.372;2023-02-12T07:19:19;103101.28;;;4.86;100.00
61786;BME280;47692;53.714;11.372;2023-02-12T07:21:44;103103.78;;;4.83;100.00
61786;BME280;47692;53.714;11.372;2023-02-12T07:24:11;103108.91;;;4.81;100.00
61786;BME280;47692;53.714;11.372;2023-02-12T07:26:37;103105.75;;;4.89;100.00
61786;BME280;47692;53.714;11.372;2023-02-12T07:29:03;103112.56;;;4.87;100.00
61786;BME280;47692;53.714;11.372;2023-02-12T07:31:29;103110.91;;;4.89;100.00
61786;BME280;47692;53.714;11.372;2023-02-12T07:33:56;103113.75;;;4.95;100.00
61786;BME280;47692;53.714;11.372;2023-02-12T07:36:23;103118.78;;;4.92;100.00
61786;BME280;47692;53.714;11.372;2023-02-12T07:38:49;103118.69;;;4.89;100.00
61786;BME280;47692;53.714;11.372;2023-02-12T07:41:18;103119.59;;;4.91;100.00
61786;BME280;47692;53.714;11.372;2023-02-12T07:43:45;103121.38;;;4.92;100.00
61786;BME280;47692;53.714;11.372;2023-02-12T07:46:14;103126.44;;;4.89;100.00
61786;BME280;47692;53.714;11.372;2023-02-12T07:48:41;103132.59;;;4.92;100.00
61786;BME280;47692;53.714;11.372;2023-02-12T07:51:08;103135.28;;;4.94;100.00
61786;BME280;47692;53.714;11.372;2023-02-12T07:53:35;103135.13;;;4.91;100.00
61786;BME280;47692;53.714;11.372;2023-02-12T07:56:15;103138.69;;;4.93;100.00
61786;BME280;47692;53.714;11.372;2023-02-12T07:58:42;103143.97;;;4.96;100.00
61786;BME280;47692;53.714;11.372;2023-02-12T08:01:18;103138.78;;;4.96;100.00
61786;BME280;47692;53.714;11.372;2023-02-12T08:03:45;103143.97;;;4.96;100.00
61786;BME280;47692;53.714;11.372;2023-02-12T08:06:14;103145.75;;;4.97;100.00
61786;BME280;47692;53.714;11.372;2023-02-12T08:08:40;103142.47;;;5.01;100.00
61786;BME280;47692;53.714;11.372;2023-02-12T08:11:07;103142.34;;;4.98;100.00
61786;BME280;47692;53.714;11.372;2023-02-12T08:13:34;103149.38;;;5.02;100.00
61786;BME280;47692;53.714;11.372;2023-02-12T08:16:03;103150.41;;;5.06;100.00
61786;BME280;47692;53.714;11.372;2023-02-12T08:18:30;103151.41;;;5.09;100.00
61786;BME280;47692;53.714;11.372;2023-02-12T08:21:00;103154.69;;;5.05;100.00
61786;BME280;47692;53.714;11.372;2023-02-12T08:23:26;103151.28;;;5.06;100.00
61786;BME280;47692;53.714;11.372;2023-02-12T08:25:51;103163.41;;;5.07;100.00
61786;BME280;47692;53.714;11.372;2023-02-12T08:28:17;103160.75;;;5.06;100.00
61786;BME280;47692;53.714;11.372;2023-02-12T08:30:42;103159.13;;;5.08;100.00
61786;BME280;47692;53.714;11.372;2023-02-12T08:33:07;103166.16;;;5.12;100.00
61786;BME280;47692;53.714;11.372;2023-02-12T08:35:33;103162.91;;;5.16;100.00
61786;BME280;47692;53.714;11.372;2023-02-12T08:37:58;103163.78;;;5.16;100.00
61786;BME280;47692;53.714;11.372;2023-02-12T08:40:23;103170.81;;;5.21;100.00
61786;BME280;47692;53.714;11.372;2023-02-12T08:42:48;103163.88;;;5.20;100.00
61786;BME280;47692;53.714;11.372;2023-02-12T08:45:14;103162.41;;;5.26;100.00
61786;BME280;47692;53.714;11.372;2023-02-12T08:47:39;103164.97;;;5.25;100.00
61786;BME280;47692;53.714;11.372;2023-02-12T08:50:05;103164.13;;;5.26;100.00
61786;BME280;47692;53.714;11.372;2023-02-12T08:52:30;103160.59;;;5.24;100.00
61786;BME280;47692;53.714;11.372;2023-02-12T08:54:56;103163.25;;;5.25;100.00
61786;BME280;47692;53.714;11.372;2023-02-12T08:57:21;103162.59;;;5.31;100.00
61786;BME280;47692;53.714;11.372;2023-02-12T08:59:47;103167.69;;;5.29;100.00
61786;BME280;47692;53.714;11.372;2023-02-12T09:02:13;103169.66;;;5.35;100.00
61786;BME280;47692;53.714;11.372;2023-02-12T09:04:38;103162.84;;;5.37;100.00
61786;BME280;47692;53.714;11.372;2023-02-12T09:07:05;103164.56;;;5.38;100.00
61786;BME280;47692;53.714;11.372;2023-02-12T09:09:30;103163.13;;;5.45;100.00
61786;BME280;47692;53.714;11.372;2023-02-12T09:11:55;103161.53;;;5.48;100.00
61786;BME280;47692;53.714;11.372;2023-02-12T09:14:21;103168.78;;;5.57;100.00
61786;BME280;47692;53.714;11.372;2023-02-12T09:16:48;103172.19;;;5.56;100.00
61786;BME280;47692;53.714;11.372;2023-02-12T09:19:16;103174.22;;;5.65;100.00
61786;BME280;47692;53.714;11.372;2023-02-12T09:21:42;103180.28;;;5.65;100.00
61786;BME280;47692;53.714;11.372;2023-02-12T09:24:08;103187.19;;;5.65;100.00
61786;BME280;47692;53.714;11.372;2023-02-12T09:26:33;103184.81;;;5.71;100.00
61786;BME280;47692;53.714;11.372;2023-02-12T09:29:01;103184.81;;;5.71;100.00
61786;BME280;47692;53.714;11.372;2023-02-12T09:31:28;103191.78;;;5.72;100.00
61786;BME280;47692;53.714;11.372;2023-02-12T09:33:58;103186.81;;;5.78;100.00
61786;BME280;47692;53.714;11.372;2023-02-12T09:36:24;103181.50;;;5.75;100.00
61786;BME280;47692;53.714;11.372;2023-02-12T09:38:49;103191.28;;;5.82;100.00
61786;BME280;47692;53.714;11.372;2023-02-12T09:41:31;103181.97;;;5.88;100.00
61786;BME280;47692;53.714;11.372;2023-02-12T09:46:44;103191.78;;;5.96;100.00
61786;BME280;47692;53.714;11.372;2023-02-12T09:51:55;103199.13;;;6.07;100.00
61786;BME280;47692;53.714;11.372;2023-02-12T09:54:23;103193.25;;;6.12;100.00
61786;BME280;47692;53.714;11.372;2023-02-12T09:56:58;103193.38;;;6.16;100.00
61786;BME280;47692;53.714;11.372;2023-02-12T09:59:32;103191.81;;;6.21;100.00
61786;BME280;47692;53.714;11.372;2023-02-12T10:01:59;103196.41;;;6.28;100.00
61786;BME280;47692;53.714;11.372;2023-02-12T10:04:25;103190.69;;;6.38;100.00
61786;BME280;47692;53.714;11.372;2023-02-12T10:07:02;103192.66;;;6.45;100.00
61786;BME280;47692;53.714;11.372;2023-02-12T10:15:31;103184.91;;;6.73;100.00
61786;BME280;47692;53.714;11.372;2023-02-12T10:21:03;103192.41;;;6.91;100.00
61786;BME280;47692;53.714;11.372;2023-02-12T10:24:13;103197.91;;;7.00;100.00
61786;BME280;47692;53.714;11.372;2023-02-12T10:26:47;103184.44;;;7.14;100.00
61786;BME280;47692;53.714;11.372;2023-02-12T10:29:28;103186.41;;;7.21;100.00
61786;BME280;47692;53.714;11.372;2023-02-12T10:32:05;103181.31;;;7.24;100.00
61786;BME280;47692;53.714;11.372;2023-02-12T10:34:34;103183.16;;;7.28;100.00
61786;BME280;47692;53.714;11.372;2023-02-12T10:37:10;103183.34;;;7.34;100.00
61786;BME280;47692;53.714;11.372;2023-02-12T10:39:47;103188.78;;;7.42;100.00
61786;BME280;47692;53.714;11.372;2023-02-12T10:42:23;103182.00;;;7.47;100.00
61786;BME280;47692;53.714;11.372;2023-02-12T10:44:50;103172.63;;;7.52;100.00
61786;BME280;47692;53.714;11.372;2023-02-12T10:47:23;103177.28;;;7.64;100.00
61786;BME280;47692;53.714;11.372;2023-02-12T10:49:57;103182.59;;;7.67;100.00
61786;BME280;47692;53.714;11.372;2023-02-12T10:52:45;103175.69;;;7.69;100.00
61786;BME280;47692;53.714;11.372;2023-02-12T10:55:24;103181.06;;;7.75;100.00
61786;BME280;47692;53.714;11.372;2023-02-12T10:57:50;103181.06;;;7.75;100.00
61786;BME280;47692;53.714;11.372;2023-02-12T11:00:33;103184.63;;;7.78;100.00
61786;BME280;47692;53.714;11.372;2023-02-12T11:05:33;103182.19;;;7.84;100.00
61786;BME280;47692;53.714;11.372;2023-02-12T11:07:59;103174.38;;;7.84;100.00
61786;BME280;47692;53.714;11.372;2023-02-12T11:12:52;103180.00;;;7.99;100.00
61786;BME280;47692;53.714;11.372;2023-02-12T11:15:26;103180.00;;;7.99;100.00
61786;BME280;47692;53.714;11.372;2023-02-12T11:18:06;103180.00;;;7.99;100.00
61786;BME280;47692;53.714;11.372;2023-02-12T11:20:39;103172.13;;;7.96;100.00
61786;BME280;47692;53.714;11.372;2023-02-12T11:23:22;103178.34;;;8.01;100.00
61786;BME280;47692;53.714;11.372;2023-02-12T11:26:03;103176.72;;;8.06;100.00
61786;BME280;47692;53.714;11.372;2023-02-12T11:28:32;103175.03;;;8.07;100.00
61786;BME280;47692;53.714;11.372;2023-02-12T11:31:03;103175.19;;;8.13;100.00
61786;BME280;47692;53.714;11.372;2023-02-12T11:33:41;103168.41;;;8.20;100.00
61786;BME280;47692;53.714;11.372;2023-02-12T11:36:22;103168.41;;;8.20;100.00
61786;BME280;47692;53.714;11.372;2023-02-12T11:38:52;103168.47;;;8.23;100.00
61786;BME280;47692;53.714;11.372;2023-02-12T11:43:48;103172.22;;;8.33;100.00
61786;BME280;47692;53.714;11.372;2023-02-12T11:46:22;103160.22;;;8.38;100.00
61786;BME280;47692;53.714;11.372;2023-02-12T11:48:49;103161.91;;;8.37;100.00
61786;BME280;47692;53.714;11.372;2023-02-12T11:51:33;103162.75;;;8.36;100.00
61786;BME280;47692;53.714;11.372;2023-02-12T11:54:02;103154.16;;;8.39;100.00
61786;BME280;47692;53.714;11.372;2023-02-12T11:56:42;103168.97;;;8.41;100.00
61786;BME280;47692;53.714;11.372;2023-02-12T11:59:33;103157.00;;;8.47;100.00
61786;BME280;47692;53.714;11.372;2023-02-12T12:02:07;103151.66;;;8.44;100.00
61786;BME280;47692;53.714;11.372;2023-02-12T12:04:40;103154.47;;;8.50;100.00
61786;BME280;47692;53.714;11.372;2023-02-12T12:07:15;103151.81;;;8.48;100.00
61786;BME280;47692;53.714;11.372;2023-02-12T12:09:54;103141.59;;;8.56;100.00
61786;BME280;47692;53.714;11.372;2023-02-12T12:15:14;103140.06;;;8.64;100.00
61786;BME280;47692;53.714;11.372;2023-02-12T12:18:08;103136.53;;;8.62;100.00
61786;BME280;47692;53.714;11.372;2023-02-12T12:21:02;103140.97;;;8.66;99.82
61786;BME280;47692;53.714;11.372;2023-02-12T12:23:56;103144.38;;;8.64;97.74
61786;BME280;47692;53.714;11.372;2023-02-12T12:26:28;103144.38;;;8.64;97.64
61786;BME280;47692;53.714;11.372;2023-02-12T12:34:06;103147.09;;;8.68;97.85
61786;BME280;47692;53.714;11.372;2023-02-12T12:55:13;103134.75;;;8.61;97.79
61786;BME280;47692;53.714;11.372;2023-02-12T13:03:04;103132.94;;;8.57;98.98
61786;BME280;47692;53.714;11.372;2023-02-12T13:05:53;103129.25;;;8.49;97.63
61786;BME280;47692;53.714;11.372;2023-02-12T13:13:38;103129.50;;;8.24;100.00
61786;BME280;47692;53.714;11.372;2023-02-12T13:16:17;103130.16;;;8.16;100.00
61786;BME280;47692;53.714;11.372;2023-02-12T13:22:20;103129.84;;;8.03;100.00
61786;BME280;47692;53.714;11.372;2023-02-12T13:25:14;103128.56;;;7.89;100.00
61786;BME280;47692;53.714;11.372;2023-02-12T13:27:43;103125.84;;;7.84;100.00
61786;BME280;47692;53.714;11.372;2023-02-12T13:32:41;103128.91;;;7.69;100.00
61786;BME280;47692;53.714;11.372;2023-02-12T13:35:16;103132.50;;;7.74;100.00
61786;BME280;47692;53.714;11.372;2023-02-12T13:37:46;103121.09;;;7.69;100.00
61786;BME280;47692;53.714;11.372;2023-02-12T13:40:16;103129.00;;;7.72;100.00
61786;BME280;47692;53.714;11.372;2023-02-12T13:50:41;103134.47;;;7.51;100.00
61786;BME280;47692;53.714;11.372;2023-02-12T13:53:22;103132.59;;;7.47;100.00
61786;BME280;47692;53.714;11.372;2023-02-12T13:58:50;103121.09;;;7.37;100.00
61786;BME280;47692;53.714;11.372;2023-02-12T14:01:43;103124.41;;;7.33;100.00
61786;BME280;47692;53.714;11.372;2023-02-12T14:09:22;103109.97;;;7.43;100.00
61786;BME280;47692;53.714;11.372;2023-02-12T14:11:52;103105.66;;;7.43;100.00
61786;BME280;47692;53.714;11.372;2023-02-12T14:14:33;103109.16;;;7.46;100.00
61786;BME280;47692;53.714;11.372;2023-02-12T14:24:54;103106.78;;;7.53;100.00
61786;BME280;47692;53.714;11.372;2023-02-12T14:27:45;103102.47;;;7.54;100.00
61786;BME280;47692;53.714;11.372;2023-02-12T14:40:51;103106.41;;;7.39;100.00
61786;BME280;47692;53.714;11.372;2023-02-12T14:45:52;103095.91;;;7.35;100.00
61786;BME280;47692;53.714;11.372;2023-02-12T14:48:48;103085.44;;;7.33;100.00
61786;BME280;47692;53.714;11.372;2023-02-12T14:51:30;103089.72;;;7.31;100.00
61786;BME280;47692;53.714;11.372;2023-02-12T14:53:59;103096.75;;;7.35;100.00
61786;BME280;47692;53.714;11.372;2023-02-12T14:56:25;103094.19;;;7.37;100.00
61786;BME280;47692;53.714;11.372;2023-02-12T14:58:52;103095.97;;;7.38;100.00
61786;BME280;47692;53.714;11.372;2023-02-12T15:01:31;103089.00;;;7.37;100.00
61786;BME280;47692;53.714;11.372;2023-02-12T15:04:04;103097.56;;;7.33;100.00
61786;BME280;47692;53.714;11.372;2023-02-12T15:06:42;103089.66;;;7.30;100.00
61786;BME280;47692;53.714;11.372;2023-02-12T15:09:20;103094.75;;;7.25;100.00
61786;BME280;47692;53.714;11.372;2023-02-12T15:12:00;103094.91;;;7.31;100.00
61786;BME280;47692;53.714;11.372;2023-02-12T15:14:34;103093.94;;;7.27;100.00
61786;BME280;47692;53.714;11.372;2023-02-12T15:17:13;103106.97;;;7.29;100.00
61786;BME280;47692;53.714;11.372;2023-02-12T15:19:54;103094.91;;;7.31;100.00
61786;BME280;47692;53.714;11.372;2023-02-12T15:22:41;103094.81;;;7.28;100.00
61786;BME280;47692;53.714;11.372;2023-02-12T15:27:53;103098.13;;;7.22;100.00
61786;BME280;47692;53.714;11.372;2023-02-12T15:30:23;103096.31;;;7.20;100.00
61786;BME280;47692;53.714;11.372;2023-02-12T15:32:50;103097.16;;;7.19;100.00
61786;BME280;47692;53.714;11.372;2023-02-12T15:35:21;103097.88;;;7.15;100.00